Data for 12/13/2016

Time Sea-Level Adjusted Pressure Absolute Pressure Temperature Relative Humidity Dew Point   
(mb) (inHg) (mb) (inHg) (C) (F) (%) (C) (F)
00:05 1017 30.03 847 25.01 -13.8 7.2 81 -16.3 2.7
00:10 1017 30.03 847 25.01 -13.8 7.2 82 -16.3 2.7
00:15 1017 30.03 846 24.98 -13.7 7.3 81 -16.3 2.7
00:20 1017 30.03 846 24.98 -13.7 7.3 81 -16.3 2.7
00:25 1017 30.03 846 24.98 -13.7 7.4 81 -16.2 2.8
00:30 1017 30.03 846 24.98 -13.6 7.5 81 -16.2 2.8
00:35 1017 30.03 846 24.98 -13.4 7.9 80 -16.1 2.9
00:40 1017 30.03 846 24.98 -13.2 8.2 79 -16.2 2.9
00:45 1017 30.03 846 24.98 -13.2 8.2 79 -16.1 3
00:50 1017 30.03 846 24.98 -13.2 8.2 79 -16.2 2.9
00:55 1017 30.03 846 24.98 -13.3 8 79 -16.2 2.9
01:00 1017 30.03 846 24.98 -13.3 8.1 79 -16.2 2.9
01:05 1017 30.03 846 24.98 -13.1 8.3 79 -16 3.2
01:10 1017 30.03 846 24.98 -13.2 8.3 79 -16 3.1
01:15 1017 30.03 847 25.01 -13.4 8 80 -16.1 3
01:20 1017 30.03 847 25.01 -13.5 7.6 81 -16.2 2.9
01:25 1017 30.03 847 25.01 -13.5 7.8 81 -16.1 3
01:30 1017 30.03 847 25.01 -13.4 7.9 80 -16.1 3
01:35 1018 30.06 847 25.01 -13.3 8.1 79 -16.2 2.9
01:40 1018 30.06 847 25.01 -13.5 7.7 80 -16.3 2.6
01:45 1018 30.06 847 25.01 -13.7 7.3 81 -16.3 2.6
01:50 1018 30.06 847 25.01 -13.8 7.2 81 -16.4 2.6
01:55 1018 30.06 847 25.01 -14 6.9 83 -16.3 2.6
02:00 1018 30.06 847 25.01 -14.1 6.6 82 -16.5 2.2
02:05 1018 30.06 847 25.01 -14.3 6.2 83 -16.6 2.2
02:10 1018 30.06 847 25.01 -14.2 6.4 84 -16.4 2.5
02:15 1017 30.03 847 25.01 -14 6.9 82 -16.4 2.5
02:20 1017 30.03 847 25.01 -13.9 7 82 -16.3 2.7
02:25 1018 30.06 847 25.01 -13.8 7.1 82 -16.2 2.8
02:30 1018 30.06 847 25.01 -13.8 7.1 81 -16.4 2.5
02:35 1018 30.06 847 25.01 -13.8 7.1 83 -16.1 3
02:40 1018 30.06 847 25.01 -13.4 7.9 80 -16.1 2.9
02:45 1018 30.06 847 25.01 -13.5 7.7 81 -16.2 2.9
02:50 1018 30.06 847 25.01 -13.7 7.3 81 -16.3 2.7
02:55 1018 30.06 847 25.01 -13.7 7.4 79 -16.5 2.2
03:00 1018 30.06 847 25.01 -13.4 7.8 77 -16.6 2.1
03:05 1018 30.06 847 25.01 -13.2 8.2 75 -16.8 1.8
03:10 1018 30.06 847 25.01 -12.7 9.2 80 -15.4 4.3
03:15 1018 30.06 847 25.01 -12.1 10.3 76 -15.5 4.1
03:20 1018 30.06 847 25.01 -12.3 9.8 75 -15.9 3.3
03:25 1018 30.06 847 25.01 -11.9 10.7 71 -16 3.1
03:30 1018 30.06 847 25.01 -11.6 11.1 71 -15.8 3.5
03:35 1017 30.03 847 25.01 -11.3 11.7 70 -15.8 3.6
03:40 1017 30.03 847 25.01 -11 12.2 70 -15.4 4.2
03:45 1017 30.03 847 25.01 -10.3 13.4 67 -15.4 4.2
03:50 1017 30.03 847 25.01 -10.2 13.7 64 -15.8 3.6
03:55 1017 30.03 847 25.01 -9.4 15.2 62 -15.5 4.2
04:00 1017 30.03 847 25.01 -9.1 15.7 61 -15.3 4.4
04:05 1017 30.03 847 25.01 -8.9 15.9 61 -15.1 4.8
04:10 1017 30.03 846 24.98 -9 15.7 61 -15.2 4.6
04:15 1017 30.03 846 24.98 -8.9 15.9 61 -15.1 4.8
04:20 1017 30.03 846 24.98 -8.9 16 62 -15 5.1
04:25 1017 30.03 846 24.98 -9.1 15.6 64 -14.8 5.3
04:30 1017 30.03 846 24.98 -9.5 14.9 65 -15 5.1
04:35 1017 30.03 846 24.98 -9.4 15.1 62 -15.3 4.5
04:40 1017 30.03 846 24.98 -9.2 15.5 61 -15.3 4.4
04:45 1017 30.03 846 24.98 -8.8 16.1 60 -15.3 4.4
04:50 1017 30.03 846 24.98 -8.8 16.1 60 -15.3 4.5
04:55 1017 30.03 846 24.98 -8.8 16.1 61 -15 5
05:00 1017 30.03 846 24.98 -9 15.8 62 -15.1 4.9
05:05 1017 30.03 846 24.98 -8.8 16.1 63 -14.7 5.5
05:10 1017 30.03 846 24.98 -9 15.9 61 -15.2 4.6
05:15 1017 30.03 846 24.98 -8.7 16.4 60 -15.2 4.7
05:20 1017 30.03 846 24.98 -8.7 16.3 61 -15 5
05:25 1017 30.03 846 24.98 -8.6 16.5 60 -15.1 4.9
05:30 1016 30 846 24.98 -8.4 16.9 59 -15.1 4.8
05:35 1016 30 846 24.98 -8.2 17.3 59 -14.8 5.4
05:40 1016 30 846 24.98 -8.2 17.2 60 -14.7 5.5
05:45 1017 30.03 846 24.98 -8.3 17 59 -15 5.1
05:50 1016 30 846 24.98 -8.1 17.4 56 -15.5 4.2
05:55 1016 30 846 24.98 -7.5 18.4 55 -15.2 4.7
06:00 1016 30 846 24.98 -7.9 17.9 62 -14 6.9
06:05 1016 30 846 24.98 -8.9 16 62 -14.9 5.2
06:10 1016 30 846 24.98 -8.4 16.9 59 -15 4.9
06:15 1016 30 846 24.98 -8.5 16.8 61 -14.8 5.4
06:20 1016 30 846 24.98 -8.6 16.5 61 -14.9 5.2
06:25 1016 30 846 24.98 -8.8 16.2 64 -14.5 5.9
06:30 1016 30 846 24.98 -8.8 16.2 60 -15.2 4.7
06:35 1016 30 846 24.98 -7.9 17.8 57 -15 4.9
06:40 1016 30 845 24.95 -7.3 18.8 56 -14.7 5.5
06:45 1016 30 845 24.95 -7.4 18.7 56 -14.8 5.4
06:50 1016 30 845 24.95 -7.1 19.2 53 -15.2 4.7
06:55 1016 30 845 24.95 -6.6 20.2 51 -15 5
07:00 1016 30 845 24.95 -6.2 20.9 51 -14.9 5.3
07:05 1016 30 845 24.95 -5.9 21.4 51 -14.4 6.1
07:10 1016 30 845 24.95 -5.9 21.4 51 -14.4 6.1
07:15 1016 30 845 24.95 -5.9 21.4 51 -14.4 6
07:20 1016 30 845 24.95 -6.3 20.6 52 -14.6 5.8
07:25 1016 30 845 24.95 -6.1 20.9 52 -14.5 5.9
07:30 1016 30 845 24.95 -5.9 21.4 50 -14.6 5.7
07:35 1016 30 845 24.95 -5.8 21.6 51 -14.4 6.1
07:40 1016 30 845 24.95 -6.1 21 54 -14 6.8
07:45 1016 30 845 24.95 -6.4 20.5 53 -14.6 5.7
07:50 1016 30 845 24.95 -6.2 20.9 51 -14.8 5.4
07:55 1016 30 845 24.95 -5.6 21.8 47 -15.2 4.7
08:00 1016 30 845 24.95 -5.1 22.8 47 -14.9 5.3
08:05 1016 30 845 24.95 -5 23 46 -14.8 5.3
08:10 1016 30 845 24.95 -5.1 22.8 47 -14.8 5.4
08:15 1016 30 845 24.95 -5.1 22.9 47 -14.8 5.3
08:20 1016 30 845 24.95 -4.9 23.1 47 -14.5 6
08:25 1016 30 845 24.95 -4.9 23.2 48 -14.2 6.4
08:30 1016 30 846 24.98 -5 23.1 49 -14.1 6.5
08:35 1016 30 845 24.95 -5 23 49 -14.3 6.3
08:40 1016 30 845 24.95 -5.5 22 51 -14.2 6.4
08:45 1016 30 845 24.95 -5.9 21.5 51 -14.4 6
08:50 1016 30 845 24.95 -5.8 21.6 52 -14.3 6.3
08:55 1016 30 845 24.95 -5.5 22.1 46 -15.3 4.5
09:00 1016 30 845 24.95 -4.3 24.3 43 -15 5
09:05 1016 30 845 24.95 -4 24.8 43 -14.7 5.6
09:10 1016 30 845 24.95 -4 24.8 44 -14.6 5.7
09:15 1016 30 845 24.95 -4 24.8 43 -14.7 5.5
09:20 1016 30 845 24.95 -3.9 24.9 43 -14.7 5.5
09:25 1016 30 845 24.95 -3.9 25.1 42 -15 5.1
09:30 1016 30 845 24.95 -3.8 25.1 44 -14.5 6
09:35 1016 30 846 24.98 -3.8 25.1 43 -14.7 5.5
09:40 1016 30 846 24.98 -3.8 25.2 42 -14.9 5.2
09:45 1016 30 846 24.98 -3.8 25.3 42 -14.8 5.4
09:50 1016 30 846 24.98 -3.7 25.3 43 -14.6 5.8
09:55 1016 30 846 24.98 -3.8 25.2 43 -14.6 5.8
10:00 1016 30 846 24.98 -3.8 25.2 43 -14.7 5.6
10:05 1016 30 846 24.98 -3.8 25.2 43 -14.6 5.7
10:10 1016 30 846 24.98 -3.8 25.2 42 -14.8 5.4
10:15 1017 30.03 846 24.98 -3.7 25.3 44 -14.4 6.1
10:20 1017 30.03 846 24.98 -3.7 25.4 42 -14.7 5.5
10:25 1017 30.03 846 24.98 -3.6 25.4 43 -14.5 5.9
10:30 1017 30.03 846 24.98 -3.6 25.5 43 -14.6 5.8
10:35 1017 30.03 846 24.98 -3.6 25.5 43 -14.5 5.9
10:40 1016 30 846 24.98 -3.6 25.5 43 -14.5 5.9
10:45 1016 30 846 24.98 -3.6 25.5 41 -14.9 5.1
10:50 1016 30 846 24.98 -3.6 25.5 42 -14.9 5.2
10:55 1016 30 846 24.98 -3.6 25.6 43 -14.4 6.2
11:00 1016 30 846 24.98 -3.6 25.6 43 -14.4 6
11:05 1016 30 846 24.98 -3.5 25.7 44 -14.2 6.5
11:10 1016 30 846 24.98 -3.5 25.7 42 -14.6 5.6
11:15 1016 30 845 24.95 -3.5 25.7 44 -14.1 6.5
11:20 1016 30 845 24.95 -3.5 25.7 42 -14.6 5.8
11:25 1016 30 845 24.95 -3.5 25.7 42 -14.7 5.5
11:30 1016 30 845 24.95 -3.5 25.6 42 -14.6 5.8
11:35 1016 30 845 24.95 -3.6 25.6 42 -14.7 5.5
11:40 1016 30 845 24.95 -3.6 25.6 41 -15 5
11:45 1016 30 845 24.95 -3.5 25.7 42 -14.7 5.5
11:50 1016 30 845 24.95 -3.5 25.8 42 -14.5 5.8
11:55 1016 30 845 24.95 -3.4 25.9 41 -14.7 5.5
12:00 1016 30 845 24.95 -3.3 26.1 41 -14.9 5.3
12:05 1016 30 845 24.95 -3.3 26.1 41 -14.9 5.2
12:10 1016 30 845 24.95 -3.3 26.1 40 -15.2 4.7
12:15 1016 30 845 24.95 -3.2 26.3 41 -14.8 5.3
12:20 1016 30 845 24.95 -3.2 26.3 41 -14.8 5.4
12:25 1016 30 845 24.95 -3.2 26.3 40 -14.9 5.1
12:30 1016 30 845 24.95 -3 26.5 40 -14.8 5.4
12:35 1016 30 845 24.95 -3 26.6 40 -14.8 5.4
12:40 1016 30 845 24.95 -3 26.7 40 -14.7 5.5
12:45 1016 30 845 24.95 -3 26.7 40 -14.6 5.7
12:50 1016 30 845 24.95 -2.9 26.8 40 -14.7 5.5
12:55 1016 30 845 24.95 -2.8 27 40 -14.6 5.7
13:00 1016 30 845 24.95 -2.7 27.1 40 -14.7 5.6
13:05 1016 30 845 24.95 -2.8 27 39 -14.9 5.3
13:10 1016 30 845 24.95 -2.8 26.9 39 -15 5
13:15 1016 30 845 24.95 -2.9 26.9 40 -14.8 5.4
13:20 1016 30 845 24.95 -2.8 26.9 39 -14.9 5.1
13:25 1016 30 845 24.95 -2.8 26.9 39 -15 5
13:30 1016 30 845 24.95 -2.8 27 40 -14.6 5.7
13:35 1016 30 845 24.95 -2.8 27 38 -15.2 4.6
13:40 1016 30 845 24.95 -2.6 27.3 39 -14.6 5.7
13:45 1016 30 845 24.95 -2.6 27.3 40 -14.4 6
13:50 1016 30 845 24.95 -2.6 27.4 39 -14.8 5.4
13:55 1016 30 845 24.95 -2.6 27.3 39 -14.8 5.4
14:00 1016 30 845 24.95 -2.5 27.5 38 -14.9 5.2
14:05 1016 30 845 24.95 -2.5 27.5 39 -14.6 5.8
14:10 1016 30 845 24.95 -2.5 27.4 38 -15.1 4.7
14:15 1016 30 845 24.95 -2.5 27.5 38 -14.9 5.2
14:20 1016 30 845 24.95 -2.5 27.4 39 -14.8 5.4
14:25 1016 30 845 24.95 -2.4 27.6 37 -15.3 4.5
14:30 1016 30 845 24.95 -2.5 27.5 38 -15.1 4.8
14:35 1016 30 845 24.95 -2.4 27.6 37 -15.4 4.4
14:40 1016 30 845 24.95 -2.5 27.5 38 -15 5
14:45 1016 30 845 24.95 -2.5 27.4 38 -14.9 5.2
14:50 1016 30 845 24.95 -2.4 27.6 40 -14.2 6.4
14:55 1016 30 845 24.95 -2.5 27.5 38 -15 5
15:00 1016 30 845 24.95 -2.5 27.5 37 -15.3 4.4
15:05 1016 30 845 24.95 -2.5 27.4 39 -14.6 5.8
15:10 1016 30 845 24.95 -2.6 27.3 39 -14.7 5.5
15:15 1016 30 845 24.95 -2.4 27.6 38 -14.9 5.2
15:20 1016 30 845 24.95 -2.4 27.6 40 -14.3 6.3
15:25 1016 30 845 24.95 -2.4 27.6 40 -14.4 6.2
15:30 1016 30 845 24.95 -2.5 27.4 40 -14.4 6
15:35 1016 30 845 24.95 -2.6 27.3 38 -15 5
15:40 1016 30 845 24.95 -2.6 27.3 41 -14.2 6.5
15:45 1016 30 845 24.95 -2.6 27.3 40 -14.5 5.9
15:50 1016 30 845 24.95 -2.4 27.7 39 -14.6 5.7
15:55 1016 30 845 24.95 -2.1 28.2 36 -15.3 4.5
16:00 1016 30 845 24.95 -2.1 28.2 37 -14.9 5.1
16:05 1016 30 845 24.95 -2.1 28.2 39 -14.4 6
16:10 1016 30 845 24.95 -2.4 27.7 41 -14 6.8
16:15 1016 30 845 24.95 -2.7 27.1 42 -14 6.8
16:20 1016 30 846 24.98 -2.9 26.8 42 -14.1 6.5
16:25 1016 30 846 24.98 -3 26.6 42 -14.2 6.4
16:30 1016 30 846 24.98 -3.2 26.3 44 -13.7 7.3
16:35 1017 30.03 846 24.98 -3.3 26.1 44 -13.9 7
16:40 1017 30.03 846 24.98 -3.3 26 44 -13.9 6.9
16:45 1017 30.03 846 24.98 -3.4 25.9 46 -13.5 7.7
16:50 1017 30.03 846 24.98 -3.4 25.9 45 -13.6 7.5
16:55 1017 30.03 846 24.98 -3.4 25.9 46 -13.3 8
17:00 1017 30.03 846 24.98 -3.5 25.8 48 -12.9 8.8
17:05 1017 30.03 846 24.98 -3.5 25.7 49 -12.7 9.2
17:10 1017 30.03 846 24.98 -3.5 25.8 50 -12.4 9.6
17:15 1017 30.03 846 24.98 -3.5 25.7 51 -12.3 9.9
17:20 1017 30.03 846 24.98 -3.6 25.6 52 -12.1 10.2
17:25 1017 30.03 846 24.98 -3.6 25.5 52 -12.1 10.3
17:30 1017 30.03 846 24.98 -3.7 25.3 53 -11.9 10.6
17:35 1017 30.03 846 24.98 -3.8 25.1 54 -11.8 10.8
17:40 1017 30.03 846 24.98 -3.9 24.9 55 -11.7 10.9
17:45 1017 30.03 846 24.98 -3.9 24.9 55 -11.8 10.8
17:50 1017 30.03 846 24.98 -4 24.8 55 -11.8 10.7
17:55 1017 30.03 846 24.98 -4.1 24.7 56 -11.7 11
18:00 1017 30.03 846 24.98 -4.2 24.5 56 -11.6 11.1
18:05 1017 30.03 846 24.98 -4.3 24.3 58 -11.4 11.5
18:10 1017 30.03 846 24.98 -4.5 23.9 59 -11.2 11.8
18:15 1017 30.03 846 24.98 -4.6 23.7 60 -11.3 11.6
18:20 1017 30.03 846 24.98 -4.7 23.5 60 -11.3 11.6
18:25 1017 30.03 846 24.98 -4.9 23.3 61 -11.2 11.9
18:30 1017 30.03 847 25.01 -5 23 62 -11.1 12
18:35 1017 30.03 847 25.01 -5 22.9 62 -11.1 11.9
18:40 1018 30.06 847 25.01 -5.1 22.8 63 -11 12.1
18:45 1018 30.06 847 25.01 -5.2 22.7 64 -10.9 12.3
18:50 1018 30.06 847 25.01 -5.2 22.6 65 -10.8 12.5
18:55 1018 30.06 847 25.01 -5.3 22.5 66 -10.8 12.6
19:00 1018 30.06 847 25.01 -5.5 22.1 66 -10.8 12.5
19:05 1018 30.06 847 25.01 -5.6 21.9 67 -10.8 12.6
19:10 1018 30.06 847 25.01 -5.8 21.6 68 -10.8 12.5
19:15 1018 30.06 847 25.01 -6.1 21.1 69 -10.9 12.4
19:20 1018 30.06 847 25.01 -6.2 20.9 69 -10.9 12.4
19:25 1018 30.06 847 25.01 -6.2 20.9 70 -10.9 12.4
19:30 1018 30.06 847 25.01 -6.3 20.7 70 -10.8 12.5
19:35 1018 30.06 847 25.01 -6.3 20.6 71 -10.8 12.6
19:40 1018 30.06 847 25.01 -6.4 20.4 72 -10.7 12.7
19:45 1018 30.06 847 25.01 -6.6 20.2 72 -10.8 12.6
19:50 1018 30.06 847 25.01 -6.8 19.7 74 -10.7 12.7
19:55 1018 30.06 847 25.01 -6.9 19.5 74 -10.8 12.5
20:00 1018 30.06 847 25.01 -6.8 19.8 73 -10.8 12.5
20:05 1018 30.06 848 25.04 -6.7 19.9 73 -10.8 12.6
20:10 1018 30.06 848 25.04 -6.7 20 73 -10.8 12.6
20:15 1018 30.06 848 25.04 -6.6 20.1 73 -10.7 12.7
20:20 1019 30.09 848 25.04 -6.6 20.2 72 -10.8 12.6
20:25 1019 30.09 848 25.04 -6.7 19.9 73 -10.8 12.5
20:30 1019 30.09 848 25.04 -6.8 19.8 73 -10.9 12.4
20:35 1019 30.09 848 25.04 -6.9 19.7 73 -10.9 12.3
20:40 1019 30.09 848 25.04 -6.8 19.7 73 -10.9 12.3
20:45 1019 30.09 848 25.04 -6.9 19.6 73 -11 12.2
20:50 1019 30.09 848 25.04 -6.9 19.5 73 -11 12.2
20:55 1019 30.09 848 25.04 -7 19.4 73 -11.1 12
21:00 1019 30.09 848 25.04 -7.3 18.9 74 -11.2 11.9
21:05 1019 30.09 848 25.04 -7.6 18.3 75 -11.3 11.6
21:10 1019 30.09 848 25.04 -7.7 18.2 75 -11.3 11.6
21:15 1019 30.09 848 25.04 -7.7 18.1 76 -11.3 11.6
21:20 1019 30.09 848 25.04 -7.6 18.3 75 -11.3 11.6
21:25 1019 30.09 848 25.04 -7.6 18.4 75 -11.3 11.7
21:30 1019 30.09 849 25.07 -7.6 18.3 75 -11.3 11.7
21:35 1019 30.09 849 25.07 -7.7 18.2 75 -11.3 11.6
21:40 1019 30.09 849 25.07 -7.6 18.4 75 -11.3 11.7
21:45 1019 30.09 849 25.07 -7.5 18.5 75 -11.3 11.7
21:50 1019 30.09 849 25.07 -7.5 18.5 74 -11.4 11.6
21:55 1019 30.09 849 25.07 -7.6 18.4 74 -11.5 11.4
22:00 1019 30.09 849 25.07 -7.6 18.4 74 -11.5 11.3
22:05 1019 30.09 849 25.07 -7.7 18.2 74 -11.5 11.3
22:10 1019 30.09 849 25.07 -7.8 17.9 75 -11.6 11.1
22:15 1019 30.09 849 25.07 -7.5 18.5 72 -11.7 11
22:20 1019 30.09 849 25.07 -7.1 19.1 71 -11.6 11.2
22:25 1019 30.09 849 25.07 -7.3 18.9 72 -11.5 11.3
22:30 1020 30.12 849 25.07 -7.5 18.5 73 -11.5 11.2
22:35 1020 30.12 849 25.07 -7.8 18 75 -11.5 11.3
22:40 1020 30.12 849 25.07 -8.1 17.3 76 -11.6 11.1
22:45 1020 30.12 849 25.07 -8.2 17.2 77 -11.6 11.1
22:50 1020 30.12 849 25.07 -8.3 17.1 77 -11.6 11.1
22:55 1020 30.12 849 25.07 -8.4 16.9 78 -11.6 11.1
23:00 1020 30.12 849 25.07 -8.5 16.6 78 -11.7 11
23:05 1020 30.12 849 25.07 -8.5 16.6 78 -11.7 11
23:10 1020 30.12 849 25.07 -8.3 17 77 -11.7 11
23:15 1020 30.12 849 25.07 -8.2 17.2 76 -11.7 11
23:20 1020 30.12 850 25.1 -8.1 17.5 75 -11.7 10.9
23:25 1020 30.12 850 25.1 -8.2 17.3 75 -11.8 10.8
23:30 1020 30.12 850 25.1 -8.5 16.7 77 -11.8 10.7
23:35 1020 30.12 850 25.1 -8.9 16.1 78 -12 10.4
23:40 1021 30.15 850 25.1 -9 15.7 78 -12.1 10.2
23:45 1021 30.15 850 25.1 -9.1 15.7 79 -12.1 10.2
23:50 1021 30.15 850 25.1 -9.1 15.7 79 -12 10.3
23:55 1021 30.15 850 25.1 -9 15.7 77 -12.3 9.9
24:00 1021 30.15 850 25.1 -9.1 15.5 77 -12.5 9.5